Time;durP1;ratioP1;P1;durP2;ratioP2;P2;SDS_P1;SDS_P2;PMS_P1;PMS_P2;Temp;Humidity;BMP_temperature;BMP_pressure;BME280_temperature;BME280_humidity;BME280_pressure;Samples;Min_cycle;Max_cycle;Signal;HPM_P1;HPM_P2
2022/05/01 00:01:02;;;;;;;;;;;8.20;99.90;;;;;;4992557;28;19922;-81
2022/05/01 00:03:31;;;;;;;;;;;8.20;99.90;;;;;;4993153;28;20004;-81
2022/05/01 00:06:04;;;;;;;;;;;8.20;99.90;;;;;;4991921;28;19922;-81
2022/05/01 00:08:30;;;;;;;;;;;8.20;99.90;;;;;;4994344;28;19921;-81
2022/05/01 00:10:56;;;;;;;;;;;8.20;99.90;;;;;;5011244;28;20020;-81
2022/05/01 00:13:24;;;;;;;;;;;8.20;99.90;;;;;;5010221;28;19921;-81
2022/05/01 00:15:49;;;;;;;;;;;8.20;99.90;;;;;;4976052;28;20299;-81
2022/05/01 00:18:15;;;;;;;;;;;8.20;99.90;;;;;;4993129;28;19921;-80
2022/05/01 00:20:41;;;;;;;;;;;8.20;99.90;;;;;;4976099;28;19973;-81
2022/05/01 00:23:06;;;;;;;;;;;8.20;99.90;;;;;;4992129;28;19921;-81
2022/05/01 00:25:32;;;;;;;;;;;8.20;99.90;;;;;;4994566;28;19979;-80
2022/05/01 00:27:58;;;;;;;;;;;8.20;99.90;;;;;;4991719;28;19933;-81
2022/05/01 00:30:26;;;;;;;;;;;8.20;99.90;;;;;;4995223;28;19926;-81
2022/05/01 00:38:24;;;;;;;;;;;8.20;99.90;;;;;;5012130;28;19921;-81
2022/05/01 00:40:50;;;;;;;;;;;8.20;99.90;;;;;;5010235;28;19926;-80
2022/05/01 00:43:16;;;;;;;;;;;8.20;99.90;;;;;;5002312;28;20016;-81
2022/05/01 00:45:41;;;;;;;;;;;8.20;99.90;;;;;;4977693;28;20016;-81
2022/05/01 00:48:07;;;;;;;;;;;8.20;99.90;;;;;;5008685;28;19948;-81
2022/05/01 00:50:33;;;;;;;;;;;8.20;99.90;;;;;;5011348;28;19972;-81
2022/05/01 00:52:59;;;;;;;;;;;8.20;99.90;;;;;;5011041;28;20539;-80
2022/05/01 00:55:25;;;;;;;;;;;8.10;99.90;;;;;;5010809;28;19929;-81
2022/05/01 00:57:50;;;;;;;;;;;8.10;99.90;;;;;;5004331;28;20374;-79
2022/05/01 01:00:18;;;;;;;;;;;8.10;99.90;;;;;;4992164;28;20363;-81
2022/05/01 01:02:45;;;;;;;;;;;8.10;99.90;;;;;;4992154;28;19972;-81
2022/05/01 01:05:11;;;;;;;;;;;8.10;99.90;;;;;;4991021;28;19921;-81
2022/05/01 01:07:37;;;;;;;;;;;8.10;99.90;;;;;;5004878;28;19931;-81
2022/05/01 01:10:03;;;;;;;;;;;8.10;99.90;;;;;;4977447;28;19922;-80
2022/05/01 01:15:13;;;;;;;;;;;8.10;99.90;;;;;;4991699;28;19925;-81
2022/05/01 01:17:41;;;;;;;;;;;8.10;99.90;;;;;;5011531;28;20363;-81
2022/05/01 01:20:15;;;;;;;;;;;8.10;99.90;;;;;;5010255;28;20430;-81
2022/05/01 01:22:42;;;;;;;;;;;8.10;99.90;;;;;;4998295;28;20348;-81
2022/05/01 01:25:11;;;;;;;;;;;8.10;99.90;;;;;;4991537;28;19921;-80
2022/05/01 01:27:40;;;;;;;;;;;8.10;99.90;;;;;;4975103;28;20020;-81
2022/05/01 01:32:51;;;;;;;;;;;8.10;99.90;;;;;;4997394;28;20389;-79
2022/05/01 01:35:21;;;;;;;;;;;8.10;99.90;;;;;;4991303;28;20012;-81
2022/05/01 01:37:47;;;;;;;;;;;8.10;99.90;;;;;;5000655;28;20008;-81
2022/05/01 01:40:16;;;;;;;;;;;8.10;99.90;;;;;;4992588;28;20004;-81
2022/05/01 01:42:42;;;;;;;;;;;8.00;99.90;;;;;;5010644;28;19929;-81
2022/05/01 01:45:08;;;;;;;;;;;8.00;99.90;;;;;;5009958;28;19922;-81
2022/05/01 01:47:33;;;;;;;;;;;8.00;99.90;;;;;;4998456;28;20260;-81
2022/05/01 01:49:59;;;;;;;;;;;8.00;99.90;;;;;;4990479;28;19922;-81
2022/05/01 01:52:24;;;;;;;;;;;8.00;99.90;;;;;;4990972;28;19932;-81
2022/05/01 01:54:51;;;;;;;;;;;8.00;99.90;;;;;;4958765;28;19937;-81
2022/05/01 01:57:16;;;;;;;;;;;7.90;99.90;;;;;;4990607;28;19925;-80
2022/05/01 01:59:42;;;;;;;;;;;8.00;99.90;;;;;;4990648;28;19926;-81
2022/05/01 02:02:09;;;;;;;;;;;7.90;99.90;;;;;;4991452;28;20667;-81
2022/05/01 02:04:34;;;;;;;;;;;7.90;99.90;;;;;;4994007;28;19932;-81
2022/05/01 02:07:00;;;;;;;;;;;7.90;99.90;;;;;;5009637;28;19925;-81
2022/05/01 02:09:26;;;;;;;;;;;8.00;99.90;;;;;;5006894;28;19928;-81
2022/05/01 02:11:53;;;;;;;;;;;7.90;99.90;;;;;;4990049;28;19941;-81
2022/05/01 02:14:19;;;;;;;;;;;8.00;99.90;;;;;;4973802;28;19933;-81
2022/05/01 02:16:44;;;;;;;;;;;8.20;99.90;;;;;;4990904;28;19925;-81
2022/05/01 02:19:10;;;;;;;;;;;7.90;99.90;;;;;;4990461;28;19929;-81
2022/05/01 02:21:36;;;;;;;;;;;7.90;99.90;;;;;;4990475;28;20011;-81
2022/05/01 02:24:03;;;;;;;;;;;7.90;99.90;;;;;;4993433;28;20015;-81
2022/05/01 02:26:29;;;;;;;;;;;8.00;99.90;;;;;;5009411;28;19986;-81
2022/05/01 02:28:54;;;;;;;;;;;7.90;99.90;;;;;;5009788;28;19972;-79
2022/05/01 02:31:20;;;;;;;;;;;7.90;99.90;;;;;;5009625;28;20038;-81
2022/05/01 02:33:46;;;;;;;;;;;7.90;99.90;;;;;;4980125;28;19933;-81
2022/05/01 02:36:12;;;;;;;;;;;7.90;99.90;;;;;;4989620;28;20008;-81
2022/05/01 02:38:38;;;;;;;;;;;7.80;99.90;;;;;;4974440;28;19928;-80
2022/05/01 02:41:03;;;;;;;;;;;7.90;99.90;;;;;;4956617;28;19922;-80
2022/05/01 02:43:29;;;;;;;;;;;7.80;99.90;;;;;;4990077;28;20384;-81
2022/05/01 02:45:55;;;;;;;;;;;8.10;99.90;;;;;;4998284;28;19922;-80
2022/05/01 02:48:20;;;;;;;;;;;7.90;99.90;;;;;;4977259;28;20596;-81
2022/05/01 02:50:46;;;;;;;;;;;7.80;99.90;;;;;;5009603;28;19992;-81
2022/05/01 02:53:11;;;;;;;;;;;8.00;99.90;;;;;;4975284;28;19925;-81
2022/05/01 02:55:37;;;;;;;;;;;7.80;99.90;;;;;;4994618;28;19948;-81
2022/05/01 02:58:03;;;;;;;;;;;8.00;99.90;;;;;;5009022;28;19983;-81
2022/05/01 03:00:28;;;;;;;;;;;7.80;99.90;;;;;;5010051;28;19921;-81
2022/05/01 03:02:57;;;;;;;;;;;7.70;99.90;;;;;;5009549;28;19972;-81
2022/05/01 03:05:24;;;;;;;;;;;7.70;99.90;;;;;;4992670;28;19921;-81
2022/05/01 03:07:50;;;;;;;;;;;7.70;99.90;;;;;;5003158;28;19928;-81
2022/05/01 03:10:15;;;;;;;;;;;7.70;99.90;;;;;;5008584;28;20016;-81
2022/05/01 03:12:41;;;;;;;;;;;7.70;99.90;;;;;;4993475;28;19921;-80
2022/05/01 03:15:07;;;;;;;;;;;7.70;99.90;;;;;;5008724;28;20430;-81
2022/05/01 03:23:02;;;;;;;;;;;7.70;99.90;;;;;;5010514;28;19932;-80
2022/05/01 03:25:28;;;;;;;;;;;7.60;99.90;;;;;;4996502;28;19925;-81
2022/05/01 03:27:54;;;;;;;;;;;7.70;99.90;;;;;;5012948;28;20268;-81
2022/05/01 03:30:20;;;;;;;;;;;7.70;99.90;;;;;;5012546;28;19987;-81
2022/05/01 03:32:46;;;;;;;;;;;7.70;99.90;;;;;;5013400;28;19976;-81
2022/05/01 03:35:15;;;;;;;;;;;7.70;99.90;;;;;;5011953;28;19925;-81
2022/05/01 03:37:42;;;;;;;;;;;7.70;99.90;;;;;;5013336;28;19974;-81
2022/05/01 03:40:08;;;;;;;;;;;7.70;99.90;;;;;;5011681;28;19932;-81
2022/05/01 03:42:34;;;;;;;;;;;7.70;99.90;;;;;;4997049;28;20382;-81
2022/05/01 03:44:59;;;;;;;;;;;7.70;99.90;;;;;;4993184;28;19925;-81
2022/05/01 03:47:25;;;;;;;;;;;7.70;99.90;;;;;;4995849;28;20027;-81
2022/05/01 03:49:50;;;;;;;;;;;7.70;99.90;;;;;;5012962;28;19944;-81
2022/05/01 03:52:16;;;;;;;;;;;8.30;99.90;;;;;;5011640;28;19944;-81
2022/05/01 03:54:41;;;;;;;;;;;7.60;99.90;;;;;;5012646;28;20008;-81
2022/05/01 03:57:09;;;;;;;;;;;7.70;99.90;;;;;;5011686;28;19921;-81
2022/05/01 03:59:34;;;;;;;;;;;7.70;99.90;;;;;;4996140;28;19921;-81
2022/05/01 04:02:00;;;;;;;;;;;7.60;99.90;;;;;;4988287;28;19926;-81
2022/05/01 04:04:26;;;;;;;;;;;7.70;99.90;;;;;;4976614;28;19948;-81
2022/05/01 04:06:51;;;;;;;;;;;7.60;99.90;;;;;;4976380;28;19921;-81
2022/05/01 04:09:17;;;;;;;;;;;7.60;99.90;;;;;;4976157;28;19928;-81
2022/05/01 04:11:42;;;;;;;;;;;7.60;99.90;;;;;;4981899;28;19922;-81
2022/05/01 04:14:08;;;;;;;;;;;7.50;99.90;;;;;;4994480;28;20298;-81
2022/05/01 04:16:33;;;;;;;;;;;7.80;99.90;;;;;;5011972;28;19932;-81
2022/05/01 04:18:59;;;;;;;;;;;7.50;99.90;;;;;;5012039;28;19922;-81
2022/05/01 04:21:25;;;;;;;;;;;7.40;99.90;;;;;;4992687;28;19932;-81
2022/05/01 04:23:50;;;;;;;;;;;7.40;99.90;;;;;;4984326;28;20434;-81
2022/05/01 04:26:16;;;;;;;;;;;7.50;99.90;;;;;;4997087;28;19921;-81
2022/05/01 04:29:36;;;;;;;;;;;7.50;99.90;;;;;;4991675;28;19944;-81
2022/05/01 04:31:30;;;;;;;;;;;7.50;99.90;;;;;;4991871;28;19937;-81
2022/05/01 04:33:55;;;;;;;;;;;7.50;99.90;;;;;;4976138;28;19921;-81
2022/05/01 04:36:21;;;;;;;;;;;7.50;99.90;;;;;;4991858;28;19952;-81
2022/05/01 04:38:47;;;;;;;;;;;7.50;99.90;;;;;;5007460;28;19921;-81
2022/05/01 04:41:16;;;;;;;;;;;7.50;99.90;;;;;;4998523;28;19960;-81
2022/05/01 04:43:42;;;;;;;;;;;7.50;99.90;;;;;;4991627;28;20367;-81
2022/05/01 04:46:08;;;;;;;;;;;7.50;99.90;;;;;;4976047;28;19922;-79
2022/05/01 04:48:33;;;;;;;;;;;7.50;99.90;;;;;;4992272;28;19976;-81
2022/05/01 04:51:00;;;;;;;;;;;7.50;99.90;;;;;;4975581;28;19932;-81
2022/05/01 04:53:26;;;;;;;;;;;7.50;99.90;;;;;;4989577;28;19922;-81
2022/05/01 04:55:52;;;;;;;;;;;7.60;99.90;;;;;;4977985;28;19922;-81
2022/05/01 04:58:20;;;;;;;;;;;7.60;99.90;;;;;;5010721;28;19921;-81
2022/05/01 05:00:46;;;;;;;;;;;7.60;99.90;;;;;;4995346;28;19932;-81
2022/05/01 05:03:12;;;;;;;;;;;7.80;99.90;;;;;;4994856;28;19931;-81
2022/05/01 05:05:38;;;;;;;;;;;7.70;99.90;;;;;;5011085;28;19925;-81
2022/05/01 05:10:49;;;;;;;;;;;7.70;99.90;;;;;;4991225;28;19921;-81
2022/05/01 05:13:16;;;;;;;;;;;7.70;99.90;;;;;;4974654;28;20019;-81
2022/05/01 05:15:41;;;;;;;;;;;7.70;99.90;;;;;;4991263;28;19925;-81
2022/05/01 05:18:07;;;;;;;;;;;7.70;99.90;;;;;;5002087;28;19922;-81
2022/05/01 05:20:33;;;;;;;;;;;7.70;99.90;;;;;;4993894;28;19927;-80
2022/05/01 05:22:59;;;;;;;;;;;7.80;99.90;;;;;;4978639;28;19969;-81
2022/05/01 05:25:24;;;;;;;;;;;7.80;99.90;;;;;;4981096;28;19922;-81
2022/05/01 05:27:50;;;;;;;;;;;7.80;99.90;;;;;;4985818;28;19956;-81
2022/05/01 05:30:15;;;;;;;;;;;7.80;99.90;;;;;;5010522;28;20317;-81
2022/05/01 05:32:41;;;;;;;;;;;7.90;99.90;;;;;;5011209;28;19936;-81
2022/05/01 05:35:07;;;;;;;;;;;7.90;99.90;;;;;;4994089;28;19925;-80
2022/05/01 05:37:32;;;;;;;;;;;7.90;99.90;;;;;;5009862;28;20031;-80
2022/05/01 05:39:58;;;;;;;;;;;7.90;99.90;;;;;;4990036;28;19977;-80
2022/05/01 05:42:24;;;;;;;;;;;7.90;99.90;;;;;;4973833;28;19928;-81
2022/05/01 05:44:49;;;;;;;;;;;7.90;99.90;;;;;;4991110;28;19922;-81
2022/05/01 05:47:15;;;;;;;;;;;7.90;99.90;;;;;;4974641;28;19925;-81
2022/05/01 05:49:40;;;;;;;;;;;7.90;99.90;;;;;;4991383;28;19930;-81
2022/05/01 05:52:06;;;;;;;;;;;8.00;99.90;;;;;;4974309;28;19953;-81
2022/05/01 05:54:32;;;;;;;;;;;8.00;99.90;;;;;;4990351;28;19925;-81
2022/05/01 05:56:58;;;;;;;;;;;8.00;99.90;;;;;;5001186;28;19925;-81
2022/05/01 05:59:24;;;;;;;;;;;8.10;99.90;;;;;;5009203;28;20397;-81
2022/05/01 06:01:49;;;;;;;;;;;8.10;99.90;;;;;;5010580;28;19928;-81
2022/05/01 06:04:15;;;;;;;;;;;8.20;99.90;;;;;;4995832;28;19922;-80
2022/05/01 06:06:41;;;;;;;;;;;8.20;99.90;;;;;;4974430;28;20467;-81
2022/05/01 06:09:07;;;;;;;;;;;8.20;99.90;;;;;;4974630;28;19984;-81
2022/05/01 06:11:35;;;;;;;;;;;8.30;99.90;;;;;;4989468;28;19922;-81
2022/05/01 06:14:01;;;;;;;;;;;8.30;99.90;;;;;;4990314;28;19930;-81
2022/05/01 06:16:27;;;;;;;;;;;8.20;99.90;;;;;;4990410;28;20378;-81
2022/05/01 06:18:53;;;;;;;;;;;8.40;99.90;;;;;;4974832;28;19921;-81
2022/05/01 06:21:18;;;;;;;;;;;8.30;99.90;;;;;;5006126;28;19925;-81
2022/05/01 06:23:47;;;;;;;;;;;8.40;99.90;;;;;;4990738;28;20383;-81
2022/05/01 06:26:13;;;;;;;;;;;8.40;99.90;;;;;;4990147;28;20715;-81
2022/05/01 06:28:38;;;;;;;;;;;8.40;99.90;;;;;;4989628;28;20024;-81
2022/05/01 06:31:04;;;;;;;;;;;8.40;99.90;;;;;;4990701;28;20279;-81
2022/05/01 06:33:30;;;;;;;;;;;8.70;99.90;;;;;;4990210;28;19922;-81
2022/05/01 06:35:56;;;;;;;;;;;8.50;99.90;;;;;;4957604;28;20024;-81
2022/05/01 06:38:22;;;;;;;;;;;8.50;99.90;;;;;;4990082;28;19922;-81
2022/05/01 06:40:48;;;;;;;;;;;8.60;99.90;;;;;;4991966;28;20434;-81
2022/05/01 06:43:14;;;;;;;;;;;8.60;99.90;;;;;;5009690;28;19925;-81
2022/05/01 06:45:41;;;;;;;;;;;8.60;99.90;;;;;;4984815;28;19976;-81
2022/05/01 06:48:10;;;;;;;;;;;8.70;99.90;;;;;;4990743;28;19940;-81
2022/05/01 06:50:36;;;;;;;;;;;8.70;99.90;;;;;;4989471;28;19932;-81
2022/05/01 06:53:02;;;;;;;;;;;8.80;99.90;;;;;;4997490;28;20363;-82
2022/05/01 06:55:28;;;;;;;;;;;8.90;99.90;;;;;;5011706;28;19987;-81
2022/05/01 06:57:54;;;;;;;;;;;8.90;99.90;;;;;;5013089;28;19932;-81
2022/05/01 07:00:20;;;;;;;;;;;9.00;99.90;;;;;;5013460;28;20028;-80
2022/05/01 07:02:49;;;;;;;;;;;9.10;99.90;;;;;;5009279;28;19922;-80
2022/05/01 07:05:15;;;;;;;;;;;9.10;99.90;;;;;;5004986;28;19948;-81
2022/05/01 07:07:41;;;;;;;;;;;9.20;99.90;;;;;;5013334;28;19925;-81
2022/05/01 07:10:07;;;;;;;;;;;9.30;99.90;;;;;;4997009;28;20012;-80
2022/05/01 07:12:33;;;;;;;;;;;9.30;99.90;;;;;;5012073;28;19940;-81
2022/05/01 07:14:58;;;;;;;;;;;9.40;99.90;;;;;;4996614;28;19925;-80
2022/05/01 07:17:24;;;;;;;;;;;9.50;99.90;;;;;;4996888;28;19983;-80
2022/05/01 07:19:50;;;;;;;;;;;9.60;99.90;;;;;;5013778;28;19921;-87
2022/05/01 07:22:19;;;;;;;;;;;9.60;99.90;;;;;;4979728;28;19921;-91
2022/05/01 07:24:44;;;;;;;;;;;9.70;99.90;;;;;;5013033;28;20377;-81
2022/05/01 07:27:10;;;;;;;;;;;9.80;99.90;;;;;;4999532;28;20022;-82
2022/05/01 07:29:36;;;;;;;;;;;9.90;99.90;;;;;;4986359;28;19931;-82
2022/05/01 07:32:01;;;;;;;;;;;9.90;99.90;;;;;;5013372;28;19979;-82
2022/05/01 07:34:27;;;;;;;;;;;10.00;99.90;;;;;;4996473;28;20498;-82
2022/05/01 07:36:53;;;;;;;;;;;10.10;99.90;;;;;;5012857;28;19925;-82
2022/05/01 07:39:18;;;;;;;;;;;10.10;99.90;;;;;;4996451;28;19933;-82
2022/05/01 07:41:44;;;;;;;;;;;10.10;99.90;;;;;;5011963;28;19952;-82
2022/05/01 07:44:11;;;;;;;;;;;10.20;99.90;;;;;;4990836;28;20215;-81
2022/05/01 07:46:40;;;;;;;;;;;10.20;99.90;;;;;;4976875;28;19961;-82
2022/05/01 07:49:06;;;;;;;;;;;10.30;99.90;;;;;;4993683;28;19926;-82
2022/05/01 07:51:32;;;;;;;;;;;10.30;99.90;;;;;;4976169;28;19926;-82
2022/05/01 07:53:58;;;;;;;;;;;10.40;99.90;;;;;;4993263;28;19925;-83
2022/05/01 07:56:24;;;;;;;;;;;10.50;99.90;;;;;;4992522;28;19925;-78
2022/05/01 07:58:50;;;;;;;;;;;10.50;99.90;;;;;;4992620;28;19928;-80
2022/05/01 08:01:16;;;;;;;;;;;10.60;99.90;;;;;;4977060;28;19926;-80
2022/05/01 08:06:26;;;;;;;;;;;10.80;99.90;;;;;;4995900;28;19933;-77
2022/05/01 08:08:51;;;;;;;;;;;10.80;99.90;;;;;;4976678;28;19926;-80
2022/05/01 08:11:17;;;;;;;;;;;10.90;99.90;;;;;;4992273;28;20008;-80
2022/05/01 08:13:43;;;;;;;;;;;10.90;99.90;;;;;;4994957;28;19972;-80
2022/05/01 08:16:08;;;;;;;;;;;11.00;99.90;;;;;;4995054;28;19960;-80
2022/05/01 08:21:21;;;;;;;;;;;11.10;99.90;;;;;;5011998;28;19925;-82
2022/05/01 08:23:47;;;;;;;;;;;11.10;99.90;;;;;;4995250;28;19925;-80
2022/05/01 08:26:13;;;;;;;;;;;11.20;99.90;;;;;;5005563;28;19921;-80
2022/05/01 08:28:42;;;;;;;;;;;11.30;99.90;;;;;;4991770;28;19922;-78
2022/05/01 08:31:08;;;;;;;;;;;11.30;99.90;;;;;;4993547;28;20279;-80
2022/05/01 08:33:34;;;;;;;;;;;11.40;99.90;;;;;;4979009;28;19921;-81
2022/05/01 08:36:02;;;;;;;;;;;11.50;99.90;;;;;;5003410;28;19921;-80
2022/05/01 08:38:28;;;;;;;;;;;11.70;99.90;;;;;;5008692;28;20447;-78
2022/05/01 08:40:54;;;;;;;;;;;11.70;99.90;;;;;;4992537;28;20024;-79
2022/05/01 08:43:21;;;;;;;;;;;11.80;99.90;;;;;;4988706;28;20567;-79
2022/05/01 08:45:52;;;;;;;;;;;12.10;99.90;;;;;;5008322;28;19928;-79
2022/05/01 08:48:36;;;;;;;;;;;12.00;99.90;;;;;;4994638;28;19925;-80
2022/05/01 08:51:03;;;;;;;;;;;12.10;99.90;;;;;;4995068;28;19925;-80
2022/05/01 08:53:29;;;;;;;;;;;12.10;99.90;;;;;;4992380;28;19921;-79
2022/05/01 08:55:55;;;;;;;;;;;12.20;99.90;;;;;;4989777;28;19922;-80
2022/05/01 08:58:21;;;;;;;;;;;12.30;99.90;;;;;;5004475;28;19932;-80
2022/05/01 09:00:49;;;;;;;;;;;12.40;99.90;;;;;;5005155;28;19944;-80
2022/05/01 09:03:18;;;;;;;;;;;12.40;99.90;;;;;;4991945;28;19921;-79
2022/05/01 09:05:43;;;;;;;;;;;12.50;99.90;;;;;;4993101;28;19922;-80
2022/05/01 09:08:09;;;;;;;;;;;12.60;99.90;;;;;;4988473;28;19929;-80
2022/05/01 09:10:35;;;;;;;;;;;12.70;99.90;;;;;;4972743;28;19929;-81
2022/05/01 09:13:01;;;;;;;;;;;12.70;99.90;;;;;;4992688;28;20382;-80
2022/05/01 09:15:40;;;;;;;;;;;12.80;99.90;;;;;;4974366;28;19923;-80
2022/05/01 09:18:09;;;;;;;;;;;12.80;99.90;;;;;;4991186;28;19977;-81
2022/05/01 09:20:39;;;;;;;;;;;12.70;99.90;;;;;;4989250;28;19925;-81
2022/05/01 09:23:06;;;;;;;;;;;12.70;99.90;;;;;;4970063;28;19925;-81
2022/05/01 09:25:32;;;;;;;;;;;12.70;99.90;;;;;;4989071;28;20012;-81
2022/05/01 09:27:59;;;;;;;;;;;12.80;99.90;;;;;;4989083;28;19921;-81
2022/05/01 09:30:32;;;;;;;;;;;12.80;99.90;;;;;;4992058;28;19925;-81
2022/05/01 09:32:58;;;;;;;;;;;12.90;99.90;;;;;;5010022;28;19971;-80
2022/05/01 09:35:35;;;;;;;;;;;12.90;99.90;;;;;;5004439;28;20375;-82
2022/05/01 09:38:08;;;;;;;;;;;13.10;99.90;;;;;;4990814;28;19995;-80
2022/05/01 09:40:34;;;;;;;;;;;13.20;99.90;;;;;;4989646;28;19928;-79
2022/05/01 09:42:59;;;;;;;;;;;13.20;99.90;;;;;;4979273;28;19921;-79
2022/05/01 09:45:29;;;;;;;;;;;13.40;99.90;;;;;;5012877;28;20364;-80
2022/05/01 09:47:55;;;;;;;;;;;13.50;99.90;;;;;;4991487;28;19925;-81
2022/05/01 09:50:38;;;;;;;;;;;13.60;99.90;;;;;;4973512;28;19925;-81
2022/05/01 09:53:03;;;;;;;;;;;13.70;99.90;;;;;;5006640;28;20386;-80
2022/05/01 09:55:29;;;;;;;;;;;13.80;99.90;;;;;;4993384;28;19940;-80
2022/05/01 09:58:23;;;;;;;;;;;13.90;99.90;;;;;;4978497;28;19929;-81
2022/05/01 10:00:48;;;;;;;;;;;14.00;99.90;;;;;;4973277;28;19921;-80
2022/05/01 10:03:19;;;;;;;;;;;14.10;99.90;;;;;;4992919;28;19921;-80
2022/05/01 10:05:45;;;;;;;;;;;14.00;99.90;;;;;;5013204;28;20024;-80
2022/05/01 10:08:11;;;;;;;;;;;14.00;99.90;;;;;;5003450;28;20059;-80
2022/05/01 10:10:37;;;;;;;;;;;14.00;99.90;;;;;;4991668;28;19969;-79
2022/05/01 10:13:05;;;;;;;;;;;13.90;99.90;;;;;;4996947;28;19949;-80
2022/05/01 10:15:32;;;;;;;;;;;13.90;99.90;;;;;;4989497;28;20331;-80
2022/05/01 10:17:58;;;;;;;;;;;13.80;99.90;;;;;;4995859;28;20497;-81
2022/05/01 10:20:24;;;;;;;;;;;13.80;99.90;;;;;;4993438;28;19932;-81
2022/05/01 10:22:50;;;;;;;;;;;13.80;99.90;;;;;;4989990;28;19922;-81
2022/05/01 10:25:16;;;;;;;;;;;13.80;99.90;;;;;;4959417;28;19921;-80
2022/05/01 10:28:17;;;;;;;;;;;13.80;99.90;;;;;;4989706;28;19925;-79
2022/05/01 10:34:15;;;;;;;;;;;13.90;99.90;;;;;;4992376;28;19926;-81
2022/05/01 10:36:58;;;;;;;;;;;14.00;99.90;;;;;;4988691;28;20286;-79
2022/05/01 10:39:23;;;;;;;;;;;14.10;97.50;;;;;;5009546;28;20252;-81
2022/05/01 10:41:49;;;;;;;;;;;14.20;99.90;;;;;;4994728;28;19928;-81
2022/05/01 10:44:26;;;;;;;;;;;14.40;99.30;;;;;;4981038;28;19972;-79
2022/05/01 10:46:52;;;;;;;;;;;14.60;98.50;;;;;;4989752;28;19984;-81
2022/05/01 10:49:31;;;;;;;;;;;14.70;96.90;;;;;;4989768;28;19928;-81
2022/05/01 10:52:12;;;;;;;;;;;14.80;93.20;;;;;;4990323;28;19921;-81
2022/05/01 10:54:38;;;;;;;;;;;14.90;96.80;;;;;;4989443;28;19922;-80
2022/05/01 10:57:05;;;;;;;;;;;15.00;95.20;;;;;;4980661;28;19933;-80
2022/05/01 10:59:34;;;;;;;;;;;15.10;96.00;;;;;;4989584;28;20618;-80
2022/05/01 11:02:03;;;;;;;;;;;15.20;97.20;;;;;;5003567;28;19921;-81
2022/05/01 11:04:32;;;;;;;;;;;15.20;96.00;;;;;;4989910;28;19925;-80
2022/05/01 11:06:57;;;;;;;;;;;15.30;96.20;;;;;;4989258;28;19922;-81
2022/05/01 11:09:24;;;;;;;;;;;15.30;96.50;;;;;;4996110;28;20393;-81
2022/05/01 11:11:55;;;;;;;;;;;15.50;90.30;;;;;;4987858;28;19925;-80
2022/05/01 11:14:33;;;;;;;;;;;15.70;95.20;;;;;;5005507;28;19926;-80
2022/05/01 11:16:59;;;;;;;;;;;15.70;90.40;;;;;;4975306;28;19944;-80
2022/05/01 11:19:28;;;;;;;;;;;15.90;90.20;;;;;;4987569;28;20378;-81
2022/05/01 11:21:55;;;;;;;;;;;16.00;85.30;;;;;;4989021;28;19926;-80
2022/05/01 11:24:39;;;;;;;;;;;16.30;85.30;;;;;;4996538;28;20274;-81
2022/05/01 11:27:11;;;;;;;;;;;16.50;85.80;;;;;;4988299;28;20024;-80
2022/05/01 11:29:37;;;;;;;;;;;16.80;84.50;;;;;;4989764;28;20289;-80
2022/05/01 11:32:23;;;;;;;;;;;17.00;78.70;;;;;;4972898;28;19929;-80
2022/05/01 11:34:50;;;;;;;;;;;16.90;76.00;;;;;;4989882;28;19921;-80
2022/05/01 11:37:16;;;;;;;;;;;16.90;84.30;;;;;;4989511;28;20012;-80
2022/05/01 11:40:02;;;;;;;;;;;16.70;79.60;;;;;;4986149;28;20017;-80
2022/05/01 11:42:46;;;;;;;;;;;16.40;73.60;;;;;;5007207;28;19925;-82
2022/05/01 11:45:12;;;;;;;;;;;16.30;74.10;;;;;;5005138;28;19960;-85
2022/05/01 11:47:38;;;;;;;;;;;16.40;73.40;;;;;;5009729;28;20382;-80
2022/05/01 11:50:05;;;;;;;;;;;16.60;66.00;;;;;;4996639;28;19925;-80
2022/05/01 11:52:35;;;;;;;;;;;16.90;69.40;;;;;;4992919;28;19925;-80
2022/05/01 11:55:07;;;;;;;;;;;17.10;73.60;;;;;;4992270;28;19933;-80
2022/05/01 12:03:03;;;;;;;;;;;16.90;69.20;;;;;;4992659;28;20013;-79
2022/05/01 12:05:29;;;;;;;;;;;17.00;70.70;;;;;;4992524;28;19922;-80
2022/05/01 12:07:56;;;;;;;;;;;17.20;67.60;;;;;;4975709;28;20264;-79
2022/05/01 12:10:22;;;;;;;;;;;17.40;66.10;;;;;;4992142;28;19929;-80
2022/05/01 12:12:48;;;;;;;;;;;17.40;63.50;;;;;;4994127;28;19972;-79
2022/05/01 12:15:13;;;;;;;;;;;17.30;62.70;;;;;;4991479;28;19921;-80
2022/05/01 12:17:40;;;;;;;;;;;17.40;62.80;;;;;;4976711;28;19980;-80
2022/05/01 12:20:06;;;;;;;;;;;17.50;61.70;;;;;;4991801;28;20036;-80
2022/05/01 12:22:37;;;;;;;;;;;17.70;63.40;;;;;;4984691;28;20431;-80
2022/05/01 12:25:03;;;;;;;;;;;18.00;65.60;;;;;;4992161;28;19925;-80
2022/05/01 12:27:30;;;;;;;;;;;18.20;63.90;;;;;;4975631;28;19922;-80
2022/05/01 12:29:56;;;;;;;;;;;18.50;63.00;;;;;;4991505;28;19928;-80
2022/05/01 12:32:22;;;;;;;;;;;18.80;61.40;;;;;;4976310;28;19922;-81
2022/05/01 12:34:48;;;;;;;;;;;19.20;63.90;;;;;;4992371;28;19972;-81
2022/05/01 12:37:14;;;;;;;;;;;19.50;62.50;;;;;;4991268;28;19926;-80
2022/05/01 12:39:40;;;;;;;;;;;19.60;62.60;;;;;;4996666;28;19921;-81
2022/05/01 12:45:09;;;;;;;;;;;20.20;64.50;;;;;;4980623;28;20510;-80
2022/05/01 12:47:38;;;;;;;;;;;20.10;60.80;;;;;;4992406;28;20584;-80
2022/05/01 12:50:09;;;;;;;;;;;19.80;59.80;;;;;;4974655;28;19926;-80
2022/05/01 12:52:39;;;;;;;;;;;19.40;59.60;;;;;;4997254;28;19991;-81
2022/05/01 12:55:07;;;;;;;;;;;18.90;59.80;;;;;;5010380;28;19921;-80
2022/05/01 12:57:36;;;;;;;;;;;18.50;60.10;;;;;;5002862;28;19925;-81
2022/05/01 13:00:05;;;;;;;;;;;18.10;58.10;;;;;;4996166;28;19921;-80
2022/05/01 13:02:31;;;;;;;;;;;17.90;54.50;;;;;;5002932;28;19957;-80
2022/05/01 13:05:03;;;;;;;;;;;17.70;60.80;;;;;;5000405;28;19942;-80
2022/05/01 13:07:35;;;;;;;;;;;17.50;57.70;;;;;;4995184;28;19973;-81
2022/05/01 13:10:04;;;;;;;;;;;17.50;60.90;;;;;;5007726;28;19991;-82
2022/05/01 13:12:31;;;;;;;;;;;17.20;56.70;;;;;;5001729;28;19935;-80
2022/05/01 13:15:04;;;;;;;;;;;17.20;58.20;;;;;;5006083;28;19922;-79
2022/05/01 13:17:31;;;;;;;;;;;17.10;57.50;;;;;;4991517;28;19932;-80
2022/05/01 13:19:57;;;;;;;;;;;17.20;59.40;;;;;;5004056;28;20023;-80
2022/05/01 13:22:23;;;;;;;;;;;17.20;59.40;;;;;;4987734;28;19921;-80
2022/05/01 13:24:52;;;;;;;;;;;17.20;59.00;;;;;;5006821;28;19921;-80
2022/05/01 13:27:19;;;;;;;;;;;17.20;59.80;;;;;;4983132;28;20035;-79
2022/05/01 13:29:45;;;;;;;;;;;17.20;58.60;;;;;;5007614;28;19922;-80
2022/05/01 13:32:11;;;;;;;;;;;17.20;58.20;;;;;;5006324;28;19925;-80
2022/05/01 13:34:41;;;;;;;;;;;17.30;61.30;;;;;;5009086;28;19931;-80
2022/05/01 13:37:08;;;;;;;;;;;17.30;60.20;;;;;;5008063;28;20449;-79
2022/05/01 13:45:03;;;;;;;;;;;16.90;58.80;;;;;;5008257;28;19932;-79
2022/05/01 13:47:28;;;;;;;;;;;17.00;58.90;;;;;;5009732;28;20321;-80
2022/05/01 13:49:55;;;;;;;;;;;17.10;59.00;;;;;;4991040;28;19922;-79
2022/05/01 13:52:21;;;;;;;;;;;17.00;57.20;;;;;;4992143;28;19936;-79
2022/05/01 13:54:47;;;;;;;;;;;17.00;58.10;;;;;;5009659;28;20279;-80
2022/05/01 13:57:13;;;;;;;;;;;16.90;57.90;;;;;;4974399;28;19929;-80
2022/05/01 13:59:39;;;;;;;;;;;17.00;55.70;;;;;;4985890;28;20484;-79
2022/05/01 14:02:04;;;;;;;;;;;17.10;56.40;;;;;;4993093;28;20368;-80
2022/05/01 14:04:30;;;;;;;;;;;17.20;57.80;;;;;;5003864;28;20443;-80
2022/05/01 14:06:56;;;;;;;;;;;17.30;57.80;;;;;;5007454;28;19922;-80
2022/05/01 14:09:22;;;;;;;;;;;17.20;56.70;;;;;;4959421;28;20455;-80
2022/05/01 14:11:48;;;;;;;;;;;17.10;57.00;;;;;;4983863;28;19926;-80
2022/05/01 14:14:14;;;;;;;;;;;17.10;56.80;;;;;;4993202;28;20532;-80
2022/05/01 14:16:41;;;;;;;;;;;17.20;58.10;;;;;;4974114;28;19949;-80
2022/05/01 14:19:10;;;;;;;;;;;17.40;55.70;;;;;;4989761;28;20066;-80
2022/05/01 14:21:40;;;;;;;;;;;17.60;56.80;;;;;;4973171;28;20058;-80
2022/05/01 14:24:06;;;;;;;;;;;17.70;56.80;;;;;;4989605;28;19925;-80
2022/05/01 14:26:32;;;;;;;;;;;17.80;54.30;;;;;;4994404;28;20045;-80
2022/05/01 14:28:57;;;;;;;;;;;17.80;52.60;;;;;;5003944;28;20004;-80
2022/05/01 14:31:35;;;;;;;;;;;18.00;55.30;;;;;;5008734;28;19925;-80
2022/05/01 14:34:02;;;;;;;;;;;18.10;55.30;;;;;;5000707;28;19925;-80
2022/05/01 14:36:30;;;;;;;;;;;18.30;52.40;;;;;;4990864;28;19929;-80
2022/05/01 14:39:04;;;;;;;;;;;18.50;56.40;;;;;;4973432;28;19926;-80
2022/05/01 14:41:44;;;;;;;;;;;18.80;57.10;;;;;;4988631;28;19944;-80
2022/05/01 14:44:11;;;;;;;;;;;18.80;55.80;;;;;;4988620;28;19937;-80
2022/05/01 14:46:59;;;;;;;;;;;18.70;54.10;;;;;;4973890;28;19925;-80
2022/05/01 14:49:37;;;;;;;;;;;18.60;50.80;;;;;;4989584;28;19922;-81
2022/05/01 14:52:07;;;;;;;;;;;18.60;53.50;;;;;;4997088;28;19921;-81
2022/05/01 14:54:33;;;;;;;;;;;18.60;54.00;;;;;;5008993;28;19921;-81
2022/05/01 14:57:02;;;;;;;;;;;18.60;56.30;;;;;;5005253;28;19926;-81
2022/05/01 15:07:55;;;;;;;;;;;19.10;53.60;;;;;;4996829;28;20020;-81
2022/05/01 15:10:21;;;;;;;;;;;20.10;54.70;;;;;;4987858;28;20012;-81
2022/05/01 15:12:47;;;;;;;;;;;20.60;54.90;;;;;;4990924;28;19975;-81
2022/05/01 15:15:13;;;;;;;;;;;20.90;52.70;;;;;;4990251;28;19921;-81